Time;durP1;ratioP1;P1;durP2;ratioP2;P2;SDS_P1;SDS_P2;PMS_P1;PMS_P2;Temp;Humidity;BMP_temperature;BMP_pressure;BME280_temperature;BME280_humidity;BME280_pressure;Samples;Min_cycle;Max_cycle;Signal;HPM_P1;HPM_P2
2021/09/14 00:00:29;;;;;;;1.37;1.10;;;;;;;12.12;100.00;101193.75;5001414;28;20259;-72
2021/09/14 00:02:55;;;;;;;3.27;2.03;;;;;;;12.10;100.00;101198.66;4995732;28;20231;-73
2021/09/14 00:05:20;;;;;;;2.50;1.30;;;;;;;12.12;100.00;101201.09;5016036;28;20632;-72
2021/09/14 00:07:48;;;;;;;1.97;1.20;;;;;;;12.16;100.00;101203.03;4992455;28;20194;-72
2021/09/14 00:10:17;;;;;;;5.63;1.70;;;;;;;12.07;100.00;101210.09;4990752;28;20570;-70
2021/09/14 00:12:43;;;;;;;2.17;1.60;;;;;;;12.01;100.00;101207.63;4992460;28;20209;-71
2021/09/14 00:15:08;;;;;;;2.53;1.73;;;;;;;12.08;100.00;101200.81;4991988;28;20186;-72
2021/09/14 00:17:39;;;;;;;1.90;1.50;;;;;;;12.11;100.00;101199.50;4976372;28;20185;-72
2021/09/14 00:20:06;;;;;;;5.37;1.80;;;;;;;12.16;100.00;101192.16;4995385;28;20185;-72
2021/09/14 00:22:34;;;;;;;1.87;1.40;;;;;;;12.10;100.00;101200.56;4991932;28;20742;-71
2021/09/14 00:25:01;;;;;;;3.07;1.60;;;;;;;12.10;100.00;101209.53;4993317;28;20185;-71
2021/09/14 00:27:29;;;;;;;3.03;1.60;;;;;;;12.07;100.00;101201.94;4991766;28;20229;-72
2021/09/14 00:29:55;;;;;;;2.80;1.50;;;;;;;12.00;100.00;101214.97;4999053;28;20181;-71
2021/09/14 00:32:22;;;;;;;2.63;1.60;;;;;;;11.93;100.00;101208.94;4975516;28;20232;-72
2021/09/14 00:34:52;;;;;;;4.53;1.63;;;;;;;12.00;100.00;101201.34;4992032;28;20178;-71
2021/09/14 00:37:22;;;;;;;4.03;1.57;;;;;;;12.00;100.00;101204.09;4991566;28;20233;-72
2021/09/14 00:39:50;;;;;;;2.60;1.50;;;;;;;12.05;100.00;101201.38;4991507;28;20252;-72
2021/09/14 00:42:18;;;;;;;2.17;1.47;;;;;;;11.94;100.00;101198.88;4991575;28;20233;-71
2021/09/14 00:44:47;;;;;;;1.87;1.67;;;;;;;11.90;100.00;101197.78;4991533;28;20185;-71
2021/09/14 00:47:13;;;;;;;3.53;1.80;;;;;;;11.91;100.00;101201.34;4975379;28;20866;-72
2021/09/14 00:49:41;;;;;;;1.60;1.50;;;;;;;11.95;100.00;101201.34;5007408;28;20592;-71
2021/09/14 00:52:12;;;;;;;4.43;1.93;;;;;;;11.99;100.00;101196.97;5007660;28;20221;-71
2021/09/14 00:54:40;;;;;;;2.97;1.87;;;;;;;11.91;100.00;101206.78;5008164;28;20221;-71
2021/09/14 00:57:09;;;;;;;2.27;1.70;;;;;;;11.98;100.00;101200.00;4991041;28;20312;-71
2021/09/14 00:59:37;;;;;;;3.13;1.50;;;;;;;11.94;100.00;101194.28;4997211;28;20192;-71
2021/09/14 01:02:06;;;;;;;2.70;1.53;;;;;;;11.95;100.00;101195.06;4973017;28;20236;-71
2021/09/14 01:04:31;;;;;;;3.03;1.80;;;;;;;11.91;100.00;101201.34;4972161;28;20190;-71
2021/09/14 01:07:01;;;;;;;1.83;1.73;;;;;;;11.91;100.00;101201.34;4984951;28;20233;-70
2021/09/14 01:09:31;;;;;;;2.53;1.80;;;;;;;11.77;100.00;101197.47;4940099;28;20233;-71
2021/09/14 01:11:58;;;;;;;3.83;1.70;;;;;;;11.74;100.00;101189.81;4983212;28;20252;-71
2021/09/14 01:14:26;;;;;;;4.03;1.73;;;;;;;11.72;100.00;101194.72;4975613;28;20186;-70
2021/09/14 01:16:54;;;;;;;3.73;1.90;;;;;;;11.70;100.00;101196.88;4963615;28;20308;-70
2021/09/14 01:19:22;;;;;;;4.37;1.90;;;;;;;11.64;100.00;101198.78;4991049;28;20569;-70
2021/09/14 01:21:52;;;;;;;2.63;1.60;;;;;;;11.57;100.00;101197.38;4970670;28;20222;-70
2021/09/14 01:24:23;;;;;;;3.20;2.10;;;;;;;11.72;100.00;101186.56;4987458;28;20186;-71
2021/09/14 01:27:00;;;;;;;4.20;2.60;;;;;;;11.77;100.00;101192.03;4985205;28;20299;-71
2021/09/14 01:32:24;;;;;;;2.30;1.90;;;;;;;11.78;100.00;101178.16;4993067;28;20217;-70
2021/09/14 01:34:52;;;;;;;2.47;2.07;;;;;;;11.75;100.00;101172.41;4990973;28;20186;-71
2021/09/14 01:37:18;;;;;;;3.67;2.20;;;;;;;11.70;100.00;101178.69;4990138;28;20220;-71
2021/09/14 01:39:51;;;;;;;4.33;2.10;;;;;;;11.73;100.00;101186.28;4990670;28;20189;-71
2021/09/14 01:42:19;;;;;;;3.00;1.77;;;;;;;11.74;100.00;101181.66;4990084;28;20226;-71
2021/09/14 01:44:49;;;;;;;2.77;2.07;;;;;;;11.74;100.00;101190.66;4974539;28;20193;-71
2021/09/14 01:47:16;;;;;;;2.10;1.90;;;;;;;11.80;100.00;101194.22;4990081;28;20267;-72
2021/09/14 01:49:43;;;;;;;5.00;2.20;;;;;;;11.72;100.00;101183.84;4974231;28;20194;-72
2021/09/14 01:52:09;;;;;;;3.27;2.20;;;;;;;11.79;100.00;101185.22;4970733;28;20712;-71
2021/09/14 01:54:38;;;;;;;3.13;2.10;;;;;;;11.86;100.00;101184.97;4971296;28;20190;-71
2021/09/14 01:57:06;;;;;;;4.13;2.37;;;;;;;11.89;100.00;101189.91;4981447;28;20244;-73
2021/09/14 01:59:32;;;;;;;2.40;2.20;;;;;;;11.96;100.00;101192.09;4999115;28;20691;-70
2021/09/14 02:24:26;;;;;;;4.57;2.50;;;;;;;12.34;100.00;101183.44;4995185;28;20190;-70
2021/09/14 02:59:48;;;;;;;4.40;2.47;;;;;;;12.53;100.00;101144.50;4986239;28;20225;-69
2021/09/14 03:02:21;;;;;;;7.33;2.90;;;;;;;12.58;100.00;101143.66;4988652;28;20222;-72
2021/09/14 03:04:58;;;;;;;3.13;2.30;;;;;;;12.64;100.00;101150.78;5004151;28;20189;-70
2021/09/14 03:07:27;;;;;;;4.40;2.70;;;;;;;12.59;100.00;101142.59;4993183;28;20209;-71
2021/09/14 03:09:53;;;;;;;3.10;2.90;;;;;;;12.68;100.00;101151.84;4993459;28;20762;-71
2021/09/14 03:12:18;;;;;;;3.80;2.70;;;;;;;12.76;100.00;101139.31;4993004;28;20221;-71
2021/09/14 03:14:49;;;;;;;5.83;3.30;;;;;;;12.82;100.00;101140.97;5001286;28;20185;-70
2021/09/14 03:17:14;;;;;;;4.70;3.00;;;;;;;12.83;100.00;101150.75;5006347;28;20220;-70
2021/09/14 03:19:42;;;;;;;6.03;3.10;;;;;;;12.95;100.00;101145.00;5008268;28;20319;-70
2021/09/14 03:22:11;;;;;;;3.43;2.50;;;;;;;12.98;100.00;101148.00;5008011;28;20273;-71
2021/09/14 03:24:38;;;;;;;6.10;2.90;;;;;;;13.05;100.00;101143.09;4999404;28;20246;-71
2021/09/14 03:27:05;;;;;;;3.87;2.57;;;;;;;13.13;100.00;101150.69;4973885;28;20233;-70
2021/09/14 03:29:33;;;;;;;5.37;2.80;;;;;;;13.14;100.00;101153.16;4975105;28;20655;-70
2021/09/14 03:31:59;;;;;;;3.70;2.90;;;;;;;13.16;100.00;101155.63;4992623;28;20328;-70
2021/09/14 03:34:25;;;;;;;4.27;2.80;;;;;;;13.20;100.00;101146.59;4974510;28;20189;-71
2021/09/14 03:36:53;;;;;;;4.37;2.77;;;;;;;13.19;100.00;101139.50;4987370;28;20349;-71
2021/09/14 03:39:21;;;;;;;6.97;3.07;;;;;;;13.28;100.00;101147.97;4967792;28;20196;-71
2021/09/14 03:41:50;;;;;;;4.40;3.40;;;;;;;13.22;100.00;101146.31;4972988;28;20640;-71
2021/09/14 03:44:18;;;;;;;3.90;3.00;;;;;;;13.17;100.00;101149.09;4976660;28;20174;-70
2021/09/14 03:46:46;;;;;;;4.10;3.00;;;;;;;13.20;100.00;101156.69;4960307;28;20226;-71
2021/09/14 03:49:15;;;;;;;5.87;3.20;;;;;;;13.39;100.00;101157.72;4957350;28;20187;-71
2021/09/14 03:51:43;;;;;;;3.80;2.80;;;;;;;13.36;100.00;101155.56;4972976;28;20230;-71
2021/09/14 03:54:09;;;;;;;2.93;2.63;;;;;;;13.33;100.00;101150.66;4985436;28;20205;-71
2021/09/14 03:56:37;;;;;;;4.30;2.80;;;;;;;13.39;100.00;101160.44;4992296;28;20225;-70
2021/09/14 03:59:05;;;;;;;6.00;3.07;;;;;;;13.60;100.00;101152.72;4983941;28;20193;-70
2021/09/14 04:01:37;;;;;;;4.47;3.20;;;;;;;13.62;100.00;101155.97;5005125;28;20240;-70
2021/09/14 04:07:09;;;;;;;5.00;2.90;;;;;;;13.60;100.00;101147.25;4990611;28;20225;-71
2021/09/14 04:09:40;;;;;;;5.50;3.60;;;;;;;13.53;100.00;101152.22;4975292;28;20735;-70
2021/09/14 04:12:17;;;;;;;5.20;3.00;;;;;;;13.75;100.00;101152.66;5007011;28;20236;-72
2021/09/14 04:14:43;;;;;;;12.50;6.00;;;;;;;13.78;100.00;101138.44;4998966;28;20182;-69
2021/09/14 04:17:11;;;;;;;5.80;3.27;;;;;;;13.85;100.00;101139.75;4988157;28;20216;-69
2021/09/14 04:19:37;;;;;;;5.10;2.90;;;;;;;13.84;100.00;101148.22;4977762;28;20181;-69
2021/09/14 04:22:04;;;;;;;6.33;3.83;;;;;;;13.96;100.00;101141.34;4975678;28;20254;-72
2021/09/14 04:24:33;;;;;;;4.03;3.30;;;;;;;13.93;100.00;101136.44;4983663;28;20193;-72
2021/09/14 04:27:03;;;;;;;4.80;2.80;;;;;;;13.92;100.00;101128.53;4991733;28;20693;-71
2021/09/14 04:29:32;;;;;;;3.53;2.80;;;;;;;13.91;100.00;101126.91;5006492;28;20197;-72
2021/09/14 04:31:58;;;;;;;3.93;3.00;;;;;;;13.89;100.00;101129.91;4991492;28;20695;-71
2021/09/14 04:34:26;;;;;;;5.77;3.00;;;;;;;13.80;100.00;101128.06;5007604;28;20190;-72
2021/09/14 04:37:00;;;;;;;4.93;3.23;;;;;;;13.80;100.00;101124.50;4981209;28;20603;-69
2021/09/14 04:39:29;;;;;;;4.37;3.50;;;;;;;13.81;100.00;101129.69;5000092;28;20663;-71
2021/09/14 04:41:57;;;;;;;6.33;3.97;;;;;;;13.85;100.00;101126.09;4972074;28;20257;-71
2021/09/14 04:44:25;;;;;;;4.93;3.73;;;;;;;13.86;100.00;101124.19;4979326;28;20647;-71
2021/09/14 04:46:52;;;;;;;5.03;3.80;;;;;;;13.85;100.00;101119.84;4991424;28;20240;-72
2021/09/14 04:49:18;;;;;;;7.00;3.80;;;;;;;13.98;100.00;101128.22;4991408;28;20663;-71
2021/09/14 04:51:48;;;;;;;7.03;4.37;;;;;;;13.98;100.00;101124.69;4991279;28;20268;-70
2021/09/14 04:54:13;;;;;;;4.47;3.87;;;;;;;14.07;100.00;101114.81;4991907;28;20652;-70
2021/09/14 04:56:39;;;;;;;4.77;3.60;;;;;;;13.94;100.00;101124.41;4990671;28;20235;-71
2021/09/14 04:59:05;;;;;;;4.97;3.37;;;;;;;14.01;100.00;101114.03;5000054;28;20201;-71
2021/09/14 05:01:33;;;;;;;5.67;3.70;;;;;;;13.98;100.00;101111.81;4990253;28;20221;-71
2021/09/14 05:04:01;;;;;;;4.80;4.27;;;;;;;13.90;100.00;101115.16;4976798;28;20176;-71
2021/09/14 05:06:32;;;;;;;5.67;4.57;;;;;;;13.83;100.00;101108.38;4976640;28;20218;-71
2021/09/14 05:09:03;;;;;;;8.07;4.03;;;;;;;13.85;100.00;101117.91;4987686;28;20217;-71
2021/09/14 05:11:33;;;;;;;6.63;3.67;;;;;;;13.72;100.00;101117.72;4977146;28;20279;-71
2021/09/14 05:13:59;;;;;;;5.23;4.13;;;;;;;13.83;100.00;101119.31;5013765;28;20181;-71
2021/09/14 05:16:31;;;;;;;5.70;4.20;;;;;;;13.94;100.00;101118.97;4994513;28;20217;-72
2021/09/14 05:19:29;;;;;;;5.00;4.20;;;;;;;13.91;100.00;101115.97;4995930;28;20185;-72
2021/09/14 05:21:59;;;;;;;5.27;4.60;;;;;;;13.97;100.00;101110.22;4991325;28;20276;-72
2021/09/14 05:24:32;;;;;;;5.03;4.03;;;;;;;13.96;100.00;101113.22;4975964;28;20703;-72
2021/09/14 05:26:57;;;;;;;7.53;4.33;;;;;;;13.88;100.00;101111.06;4974930;28;20225;-72
2021/09/14 05:29:30;;;;;;;4.70;4.30;;;;;;;14.03;100.00;101103.63;4974520;28;20217;-70
2021/09/14 05:31:56;;;;;;;5.30;4.40;;;;;;;13.99;100.00;101101.72;4990483;28;20228;-72
2021/09/14 05:34:24;;;;;;;5.20;4.17;;;;;;;13.89;100.00;101107.25;4971501;28;20182;-72
2021/09/14 05:36:50;;;;;;;6.17;4.30;;;;;;;13.97;100.00;101106.63;4990187;28;20714;-71
2021/09/14 05:39:17;;;;;;;4.87;4.07;;;;;;;13.86;100.00;101105.06;4990046;28;20561;-71
2021/09/14 05:41:46;;;;;;;6.20;4.33;;;;;;;13.98;100.00;101100.09;4974494;28;20765;-70
2021/09/14 05:44:11;;;;;;;7.13;3.80;;;;;;;14.04;100.00;101101.72;4990783;28;20190;-70
2021/09/14 05:46:38;;;;;;;7.47;4.00;;;;;;;14.15;100.00;101090.41;4985041;28;20280;-71
2021/09/14 05:49:06;;;;;;;5.23;4.03;;;;;;;14.01;100.00;101104.97;4970839;28;20539;-71
2021/09/14 05:51:32;;;;;;;6.10;4.30;;;;;;;14.18;100.00;101095.31;4956166;28;20217;-71
2021/09/14 05:54:04;;;;;;;5.87;4.17;;;;;;;14.28;100.00;101096.06;4987598;28;20190;-71
2021/09/14 05:56:35;;;;;;;5.77;4.43;;;;;;;14.33;100.00;101104.22;4974807;28;20225;-71
2021/09/14 05:59:08;;;;;;;6.03;4.13;;;;;;;14.35;100.00;101107.47;4998500;28;20190;-71
2021/09/14 06:01:36;;;;;;;8.87;4.40;;;;;;;14.49;100.00;101105.72;4990977;28;20226;-71
2021/09/14 06:04:06;;;;;;;8.03;4.60;;;;;;;14.62;100.00;101096.06;4987228;28;20174;-71
2021/09/14 06:06:39;;;;;;;5.07;3.90;;;;;;;14.69;100.00;101091.88;4989998;28;20723;-71
2021/09/14 06:09:07;;;;;;;5.13;4.27;;;;;;;14.75;100.00;101093.44;4974871;28;20189;-71
2021/09/14 06:11:38;;;;;;;5.83;4.03;;;;;;;14.80;100.00;101101.63;4968519;28;20229;-71
2021/09/14 06:14:05;;;;;;;8.30;4.90;;;;;;;14.93;100.00;101099.00;4989545;28;20182;-74
2021/09/14 06:16:35;;;;;;;5.97;4.70;;;;;;;14.98;100.00;101089.91;4971903;28;20295;-72
2021/09/14 06:19:04;;;;;;;7.00;4.33;;;;;;;15.05;100.00;101096.66;4989768;28;20182;-72
2021/09/14 06:21:37;;;;;;;5.97;4.33;;;;;;;15.12;100.00;101092.47;4981026;28;20217;-71
2021/09/14 06:24:08;;;;;;;6.70;4.97;;;;;;;15.21;100.00;101090.75;4996286;28;20185;-72
2021/09/14 06:26:34;;;;;;;6.43;4.80;;;;;;;15.18;100.00;101085.91;4989935;28;20222;-71
2021/09/14 06:29:03;;;;;;;6.90;4.23;;;;;;;15.28;100.00;101087.69;4978496;28;20187;-72
2021/09/14 06:31:29;;;;;;;6.93;4.67;;;;;;;15.45;100.00;101086.09;5000704;28;20258;-71
2021/09/14 06:33:59;;;;;;;6.77;4.90;;;;;;;15.56;100.00;101082.91;4995558;28;20308;-71
2021/09/14 06:36:25;;;;;;;6.37;5.13;;;;;;;15.61;100.00;101087.53;4990080;28;20268;-71
2021/09/14 06:38:54;;;;;;;7.83;5.57;;;;;;;15.73;100.00;101083.22;4970547;28;20416;-71
2021/09/14 06:41:21;;;;;;;6.27;4.87;;;;;;;15.78;100.00;101089.44;4973514;28;20229;-72
2021/09/14 06:43:50;;;;;;;6.67;5.03;;;;;;;15.85;100.00;101091.84;4974613;28;20186;-72
2021/09/14 06:46:15;;;;;;;5.77;4.37;;;;;;;15.79;100.00;101082.06;4989958;28;20232;-71
2021/09/14 06:48:47;;;;;;;6.70;5.00;;;;;;;16.06;100.00;101087.66;4959312;28;20186;-71
2021/09/14 06:51:12;;;;;;;5.53;4.83;;;;;;;16.13;100.00;101088.91;4973460;28;20232;-73
2021/09/14 06:53:38;;;;;;;8.15;5.20;;;;;;;16.15;100.00;101085.88;4973982;28;20192;-71
2021/09/14 06:56:06;;;;;;;5.63;4.53;;;;;;;16.29;100.00;101080.19;4989594;28;20300;-72
2021/09/14 06:58:39;;;;;;;6.15;4.38;;;;;;;16.40;100.00;101078.91;4997735;28;20189;-72
2021/09/14 07:01:07;;;;;;;7.22;4.20;;;;;;;16.43;100.00;101080.25;4985048;28;20218;-72
2021/09/14 07:03:35;;;;;;;6.03;4.30;;;;;;;16.38;100.00;101075.66;4989869;28;20197;-72
2021/09/14 07:06:06;;;;;;;7.27;4.30;;;;;;;16.44;100.00;101082.69;5005643;28;20300;-71
2021/09/14 07:08:32;;;;;;;5.68;4.30;;;;;;;16.69;100.00;101088.53;4979228;28;20679;-73
2021/09/14 07:10:59;;;;;;;4.78;3.90;;;;;;;16.69;100.00;101090.47;4988847;28;20301;-72
2021/09/14 07:13:24;;;;;;;6.87;4.10;;;;;;;16.64;100.00;101074.91;5014394;28;20197;-73
2021/09/14 07:15:55;;;;;;;5.63;4.10;;;;;;;16.59;100.00;101083.25;4997384;28;20225;-71
2021/09/14 07:18:22;;;;;;;6.40;4.00;;;;;;;16.78;100.00;101084.00;4990194;28;20189;-71
2021/09/14 07:20:50;;;;;;;9.57;4.20;;;;;;;16.99;100.00;101090.72;4976752;28;20600;-72
2021/09/14 07:23:16;;;;;;;5.35;4.03;;;;;;;17.02;100.00;101092.88;4993245;28;20241;-73
2021/09/14 07:25:42;;;;;;;5.50;3.92;;;;;;;17.04;100.00;101085.13;4978482;28;20752;-72
2021/09/14 07:28:10;;;;;;;8.05;3.92;;;;;;;17.21;100.00;101088.13;4992878;28;20184;-72
2021/09/14 07:30:36;;;;;;;7.70;4.35;;;;;;;17.33;100.00;101086.50;4987859;28;20220;-72
2021/09/14 07:33:04;;;;;;;6.28;4.05;;;;;;;17.42;100.00;101088.22;4998447;28;20348;-73
2021/09/14 07:35:30;;;;;;;4.68;3.83;;;;;;;17.49;100.00;101088.63;4993901;28;20229;-72
2021/09/14 07:37:59;;;;;;;4.25;3.80;;;;;;;17.62;100.00;101075.97;4987078;28;20189;-72
2021/09/14 07:40:27;;;;;;;5.82;4.00;;;;;;;17.64;100.00;101079.25;4989315;28;20226;-71
2021/09/14 07:42:57;;;;;;;6.80;4.10;;;;;;;17.70;100.00;101078.03;5010604;28;20344;-71
2021/09/14 07:45:22;;;;;;;6.82;3.83;;;;;;;17.77;100.00;101076.47;4978132;28;20205;-71
2021/09/14 07:47:50;;;;;;;5.80;3.70;;;;;;;17.81;100.00;101081.03;5009687;28;20173;-72
2021/09/14 07:50:16;;;;;;;7.28;3.58;;;;;;;17.76;100.00;101077.56;5007830;28;20644;-71
2021/09/14 07:52:42;;;;;;;3.83;3.03;;;;;;;17.82;100.00;101077.16;5000072;28;20428;-72
2021/09/14 07:55:07;;;;;;;7.00;3.10;;;;;;;18.02;100.00;101075.88;5008052;28;20678;-71
2021/09/14 07:57:40;;;;;;;4.35;3.50;;;;;;;17.91;100.00;101074.47;4994355;28;20281;-72
2021/09/14 08:00:09;;;;;;;3.45;3.00;;;;;;;18.18;100.00;101064.25;5005166;28;20185;-72
2021/09/14 08:02:38;;;;;;;3.38;2.80;;;;;;;18.37;100.00;101057.44;5000698;28;20320;-71
2021/09/14 08:05:09;;;;;;;5.80;2.80;;;;;;;18.25;100.00;101065.44;4989339;28;20273;-71
2021/09/14 08:07:35;;;;;;;3.38;3.08;;;;;;;18.30;100.00;101061.75;4986780;28;20326;-72
2021/09/14 08:10:01;;;;;;;4.18;2.65;;;;;;;18.52;100.00;101068.06;4993861;28;20181;-71
2021/09/14 08:12:29;;;;;;;3.53;2.80;;;;;;;18.46;100.00;101058.31;4992713;28;20206;-71
2021/09/14 08:14:54;;;;;;;4.55;2.55;;;;;;;18.72;100.00;101059.28;4996219;28;20671;-71
2021/09/14 08:17:22;;;;;;;5.90;2.70;;;;;;;18.78;100.00;101052.50;4992649;28;20224;-71
2021/09/14 08:19:50;;;;;;;4.13;2.70;;;;;;;18.87;100.00;101054.16;4991994;28;20285;-72
2021/09/14 08:22:19;;;;;;;3.47;2.80;;;;;;;18.89;100.00;101066.47;4991971;28;20228;-72
2021/09/14 08:24:46;;;;;;;2.90;2.63;;;;;;;18.92;100.00;101065.84;4991970;28;20284;-70
2021/09/14 08:27:15;;;;;;;3.28;2.53;;;;;;;19.18;100.00;101064.06;5001347;28;20308;-71
2021/09/14 08:29:42;;;;;;;3.60;2.50;;;;;;;19.30;100.00;101062.31;4987984;28;20680;-71
2021/09/14 08:32:13;;;;;;;3.92;2.60;;;;;;;19.50;100.00;101058.94;4988051;28;20249;-72
2021/09/14 08:34:38;;;;;;;3.55;2.78;;;;;;;19.01;100.00;101065.91;4986302;28;20628;-71
2021/09/14 08:37:08;;;;;;;2.50;2.30;;;;;;;19.28;100.00;101074.75;4991551;28;20205;-71
2021/09/14 08:39:36;;;;;;;3.85;2.33;;;;;;;19.43;100.00;101075.16;4991531;28;20190;-71
2021/09/14 08:42:01;;;;;;;4.82;2.60;;;;;;;19.59;100.00;101062.53;4974940;28;20225;-71
2021/09/14 08:44:27;;;;;;;3.20;2.55;;;;;;;19.65;100.00;101071.47;4990220;28;20640;-72
2021/09/14 08:46:55;;;;;;;5.78;2.85;;;;;;;19.64;100.00;101062.38;4955412;28;20222;-71
2021/09/14 08:49:20;;;;;;;4.38;2.50;;;;;;;19.51;100.00;101062.53;4975729;28;20557;-73
2021/09/14 08:51:51;;;;;;;3.55;2.30;;;;;;;19.77;100.00;101061.44;4975096;28;20226;-72
2021/09/14 08:54:16;;;;;;;3.45;2.63;;;;;;;19.83;100.00;101060.97;4975563;28;20284;-72
2021/09/14 08:56:44;;;;;;;4.20;2.70;;;;;;;19.75;100.00;101061.75;4974552;28;20777;-72
2021/09/14 08:59:09;;;;;;;2.85;2.40;;;;;;;19.93;100.00;101057.91;4976196;28;20185;-72
2021/09/14 09:01:37;;;;;;;3.97;3.10;;;;;;;19.90;100.00;101055.00;4988003;28;20237;-72
2021/09/14 09:04:04;;;;;;;5.45;2.45;;;;;;;19.81;100.00;101057.72;4954602;28;20178;-72
2021/09/14 09:06:33;;;;;;;2.70;2.50;;;;;;;20.03;100.00;101068.63;5007306;28;20703;-72
2021/09/14 09:09:14;;;;;;;2.85;2.58;;;;;;;20.06;100.00;101066.03;4990063;28;20193;-72
2021/09/14 09:11:57;;;;;;;3.03;2.30;;;;;;;20.40;100.00;101060.47;4990313;28;20241;-73
2021/09/14 09:14:37;;;;;;;3.58;2.35;;;;;;;20.61;100.00;101055.91;5006309;28;20193;-73
2021/09/14 09:17:13;;;;;;;3.28;2.50;;;;;;;20.61;100.00;101053.16;4967921;28;20264;-73
2021/09/14 09:20:00;;;;;;;2.97;2.20;;;;;;;20.51;100.00;101056.22;4973670;28;20240;-71
2021/09/14 09:22:30;;;;;;;4.28;2.40;;;;;;;20.66;100.00;101064.84;4958235;28;20229;-73
2021/09/14 09:24:59;;;;;;;2.75;2.45;;;;;;;20.57;100.00;101050.22;4999502;28;20194;-73
2021/09/14 09:27:28;;;;;;;3.35;2.15;;;;;;;20.55;100.00;101049.75;4973693;28;20217;-72
2021/09/14 09:30:05;;;;;;;4.05;2.75;;;;;;;20.84;100.00;101047.06;4973609;28;20248;-73
2021/09/14 09:33:03;;;;;;;4.18;2.40;;;;;;;20.86;100.00;101051.16;4990811;28;20260;-72
2021/09/14 09:35:35;;;;;;;2.97;2.30;;;;;;;21.13;100.00;101058.19;4947126;28;20287;-73
2021/09/14 09:38:01;;;;;;;3.55;2.17;;;;;;;21.23;100.00;101062.22;4971245;28;20183;-74
2021/09/14 09:40:47;;;;;;;3.22;2.47;;;;;;;21.34;100.00;101060.69;5004255;28;20232;-73
2021/09/14 09:43:13;;;;;;;2.60;2.40;;;;;;;21.22;100.00;101058.97;5007122;28;20315;-71
2021/09/14 09:45:50;;;;;;;3.08;2.38;;;;;;;21.43;100.00;101053.19;4990464;28;20217;-73
2021/09/14 09:48:18;;;;;;;3.60;2.20;;;;;;;21.32;100.00;101045.59;4990696;28;20397;-71
2021/09/14 09:50:44;;;;;;;2.22;2.00;;;;;;;21.74;100.00;101048.94;4990383;28;20889;-72
2021/09/14 09:53:10;;;;;;;2.55;2.13;;;;;;;21.83;100.00;101043.31;4990747;28;20201;-71
2021/09/14 09:55:35;;;;;;;2.30;1.88;;;;;;;21.79;100.00;101045.13;5003012;28;20235;-71
2021/09/14 09:58:06;;;;;;;2.60;2.10;;;;;;;21.73;100.00;101043.72;5011530;28;20185;-71
2021/09/14 10:00:37;;;;;;;2.88;2.15;;;;;;;21.77;100.00;101047.44;5007697;28;20236;-71
2021/09/14 10:03:13;;;;;;;3.05;1.92;;;;;;;21.77;100.00;101037.16;5010256;28;20221;-71
2021/09/14 10:05:38;;;;;;;3.72;2.50;;;;;;;21.77;100.00;101036.38;4994573;28;20229;-72
2021/09/14 10:08:09;;;;;;;3.08;2.20;;;;;;;22.11;97.85;101043.25;4990315;28;20173;-73
2021/09/14 10:10:38;;;;;;;4.20;2.20;;;;;;;21.81;97.36;101029.00;4989881;28;20232;-72
2021/09/14 10:13:08;;;;;;;2.90;2.40;;;;;;;22.09;98.61;101023.41;4958549;28;20209;-71
2021/09/14 10:15:45;;;;;;;2.60;2.00;;;;;;;21.98;100.00;101024.16;5011771;28;20216;-72
2021/09/14 10:18:11;;;;;;;3.58;2.25;;;;;;;21.77;100.00;101030.84;4987465;28;20270;-71
2021/09/14 10:20:44;;;;;;;2.35;2.13;;;;;;;21.83;100.00;101023.94;4996142;28;20221;-71
2021/09/14 10:23:20;;;;;;;2.58;2.08;;;;;;;21.74;100.00;101020.47;4974411;28;20221;-69
2021/09/14 10:25:50;;;;;;;3.75;2.30;;;;;;;21.69;100.00;101031.72;4987884;28;20210;-72
2021/09/14 10:28:16;;;;;;;4.18;2.40;;;;;;;21.95;99.86;101015.72;4973722;28;20199;-71
2021/09/14 10:30:42;;;;;;;3.72;2.20;;;;;;;22.19;96.30;101003.63;4989532;28;20596;-72
2021/09/14 10:33:24;;;;;;;2.42;2.30;;;;;;;22.29;97.91;101003.22;4962902;28;20229;-72
2021/09/14 10:35:52;;;;;;;3.65;2.00;;;;;;;22.16;100.00;101004.34;4999116;28;20707;-72
2021/09/14 10:38:18;;;;;;;3.10;2.80;;;;;;;22.27;95.51;101001.94;4989737;28;20185;-71
2021/09/14 10:40:45;;;;;;;3.85;2.40;;;;;;;22.41;96.06;101006.03;4967454;28;20373;-73
2021/09/14 10:43:28;;;;;;;5.05;2.90;;;;;;;22.10;92.87;101002.06;4974046;28;20214;-71
2021/09/14 10:45:57;;;;;;;3.22;2.50;;;;;;;22.44;92.36;100999.81;4973593;28;20221;-71
2021/09/14 10:48:25;;;;;;;2.80;2.35;;;;;;;22.70;91.10;100992.03;4989935;28;20655;-72
2021/09/14 10:50:52;;;;;;;3.28;2.60;;;;;;;22.93;87.44;101000.41;4989628;28;20218;-71
2021/09/14 10:53:29;;;;;;;3.83;2.65;;;;;;;23.11;92.87;100996.22;4990739;28;20202;-71
2021/09/14 10:55:58;;;;;;;4.28;2.97;;;;;;;23.30;89.72;101004.78;4997410;28;20299;-72
2021/09/14 10:58:27;;;;;;;3.25;2.70;;;;;;;23.24;89.85;100998.66;5006449;28;20216;-71
2021/09/14 11:00:55;;;;;;;3.05;2.72;;;;;;;23.09;87.69;100998.53;4969677;28;20217;-72
2021/09/14 11:03:25;;;;;;;2.90;2.70;;;;;;;23.29;85.23;100992.06;4992283;28;20738;-72
2021/09/14 11:05:51;;;;;;;7.43;2.78;;;;;;;23.36;88.13;100981.19;4989313;28;20248;-73
2021/09/14 11:08:26;;;;;;;4.07;2.70;;;;;;;23.33;83.09;100990.22;4990845;28;20185;-71
2021/09/14 11:10:59;;;;;;;4.03;2.70;;;;;;;23.29;88.87;100992.06;4961807;28;20217;-73
2021/09/14 11:13:29;;;;;;;4.57;2.92;;;;;;;23.20;84.52;100992.22;4975816;28;20565;-71
2021/09/14 11:16:02;;;;;;;4.10;2.70;;;;;;;23.18;87.31;100997.25;5007258;28;20240;-72
2021/09/14 11:18:31;;;;;;;3.20;2.80;;;;;;;23.05;84.00;100991.28;4967458;28;20291;-71
2021/09/14 11:21:04;;;;;;;3.22;2.60;;;;;;;23.53;83.73;100992.03;4987050;28;20308;-72
2021/09/14 11:23:34;;;;;;;3.90;2.55;;;;;;;23.81;80.79;100991.78;4997518;28;20300;-72
2021/09/14 11:26:02;;;;;;;2.78;2.50;;;;;;;23.51;80.88;100991.59;4993445;28;20301;-73
2021/09/14 11:28:30;;;;;;;3.38;2.13;;;;;;;23.79;80.43;100991.31;5017977;28;20635;-72
2021/09/14 11:31:01;;;;;;;3.55;2.67;;;;;;;23.94;79.60;100982.25;4983365;28;20847;-72
2021/09/14 11:33:32;;;;;;;2.50;2.30;;;;;;;24.14;81.67;100981.25;4990551;28;20183;-71
2021/09/14 11:35:58;;;;;;;3.85;2.90;;;;;;;24.40;74.77;100977.66;4981999;28;20675;-72
2021/09/14 11:38:24;;;;;;;3.90;2.67;;;;;;;24.51;75.95;100973.19;5012455;28;20189;-73
2021/09/14 11:41:01;;;;;;;2.58;2.30;;;;;;;24.52;76.23;100980.38;4991917;28;20237;-73
2021/09/14 11:43:33;;;;;;;3.67;2.65;;;;;;;24.27;72.91;100968.97;4993622;28;20213;-72
2021/09/14 11:45:58;;;;;;;3.13;2.90;;;;;;;24.34;77.65;100969.97;4958202;28;20231;-73
2021/09/14 11:48:30;;;;;;;3.95;3.00;;;;;;;24.30;77.07;100968.22;4988992;28;20178;-72
2021/09/14 11:51:06;;;;;;;3.95;2.40;;;;;;;24.04;79.00;100965.09;4983726;28;20316;-73
2021/09/14 11:53:34;;;;;;;3.15;2.70;;;;;;;23.97;78.03;100965.69;4973988;28;20341;-73
2021/09/14 11:56:02;;;;;;;4.05;3.17;;;;;;;23.84;79.40;100966.06;4993343;28;20213;-72
2021/09/14 11:58:29;;;;;;;3.13;2.70;;;;;;;23.78;78.19;100950.84;5000244;28;20193;-72
2021/09/14 12:01:01;;;;;;;4.10;3.20;;;;;;;23.98;77.96;100950.66;4978690;28;20704;-72
2021/09/14 12:03:34;;;;;;;3.53;3.10;;;;;;;24.38;75.50;100956.97;4996877;28;20234;-71
2021/09/14 12:06:00;;;;;;;3.63;2.88;;;;;;;24.83;74.62;100949.81;4974429;28;20218;-71
2021/09/14 12:08:31;;;;;;;3.95;2.78;;;;;;;24.63;75.47;100950.06;4971608;28;20714;-72
2021/09/14 12:10:57;;;;;;;3.10;2.80;;;;;;;24.80;73.40;100944.97;4979685;28;20247;-74
2021/09/14 12:13:34;;;;;;;3.22;2.92;;;;;;;24.66;75.74;100943.81;4990632;28;20190;-72
2021/09/14 12:16:12;;;;;;;3.35;2.65;;;;;;;24.83;73.66;100939.50;4973062;28;20217;-73
2021/09/14 12:18:38;;;;;;;5.22;3.10;;;;;;;24.84;77.27;100934.75;4976210;28;20742;-72
2021/09/14 12:21:08;;;;;;;3.00;2.70;;;;;;;24.87;75.32;100945.13;4996303;28;20239;-70
2021/09/14 12:23:33;;;;;;;4.18;2.78;;;;;;;24.85;76.55;100937.19;5016452;28;20213;-72
2021/09/14 12:25:59;;;;;;;4.82;2.95;;;;;;;24.99;74.21;100945.09;5007848;28;20652;-72
2021/09/14 12:28:24;;;;;;;4.65;3.20;;;;;;;24.81;71.68;100935.47;4975795;28;20205;-74